createdAt,value
2018-05-17T00:04:04.441Z,16.87
2018-05-17T00:09:11.623Z,18.53
2018-05-17T00:14:18.735Z,21.60
2018-05-17T00:19:25.934Z,22.10
2018-05-17T00:24:33.184Z,22.43
2018-05-17T00:29:40.224Z,21.27
2018-05-17T00:34:47.429Z,18.90
2018-05-17T00:39:54.538Z,16.47
2018-05-17T00:45:01.726Z,13.90
2018-05-17T00:50:08.843Z,13.17
2018-05-17T00:55:16.763Z,13.87
2018-05-17T01:00:23.905Z,13.97
2018-05-17T01:05:31.098Z,12.40
2018-05-17T01:10:38.325Z,12.30
2018-05-17T01:15:45.491Z,13.90
2018-05-17T01:20:52.673Z,14.80
2018-05-17T01:26:00.582Z,16.17
2018-05-17T01:31:07.710Z,14.97
2018-05-17T01:36:15.603Z,15.90
2018-05-17T01:41:22.842Z,14.03
2018-05-17T01:46:29.917Z,14.40
2018-05-17T01:51:37.127Z,13.80
2018-05-17T01:56:45.031Z,14.67
2018-05-17T02:01:52.181Z,12.50
2018-05-17T02:06:59.238Z,17.27
2018-05-17T02:12:06.442Z,17.10
2018-05-17T02:17:13.534Z,13.87
2018-05-17T02:22:20.685Z,18.17
2018-05-17T02:27:27.790Z,16.90
2018-05-17T02:32:35.666Z,22.83
2018-05-17T02:37:43.589Z,20.50
2018-05-17T02:42:50.802Z,25.27
2018-05-17T02:47:58.008Z,22.60
2018-05-17T02:53:05.225Z,25.07
2018-05-17T02:58:12.335Z,28.87
2018-05-17T03:03:19.447Z,28.50
2018-05-17T03:08:26.681Z,30.87
2018-05-17T03:13:34.510Z,33.60
2018-05-17T03:18:41.654Z,37.50
2018-05-17T03:23:48.880Z,29.97
2018-05-17T03:28:56.067Z,28.97
2018-05-17T03:34:03.858Z,31.00
2018-05-17T03:39:10.912Z,31.77
2018-05-17T03:44:18.862Z,46.00
2018-05-17T03:49:26.797Z,37.17
2018-05-17T03:54:34.586Z,37.50
2018-05-17T03:59:41.714Z,40.50
2018-05-17T04:05:01.363Z,35.87
2018-05-17T04:10:08.382Z,37.47
2018-05-17T04:15:16.311Z,37.10
2018-05-17T04:20:24.315Z,45.93
2018-05-17T04:25:31.438Z,33.60
2018-05-17T04:30:39.340Z,36.40
2018-05-17T04:35:47.385Z,33.23
2018-05-17T04:40:54.422Z,33.13
2018-05-17T04:46:01.574Z,32.10
2018-05-17T04:51:08.674Z,38.00
2018-05-17T04:56:15.913Z,29.00
2018-05-17T05:01:22.983Z,28.90
2018-05-17T05:06:30.134Z,25.80
2018-05-17T05:11:37.267Z,28.13
2018-05-17T05:16:45.202Z,25.57
2018-05-17T05:21:52.450Z,33.40
2018-05-17T05:27:00.322Z,29.57
2018-05-17T05:32:08.251Z,26.93
2018-05-17T05:37:15.425Z,21.83
2018-05-17T05:42:22.639Z,22.37
2018-05-17T05:47:29.798Z,20.20
2018-05-17T05:52:36.968Z,22.00
2018-05-17T05:57:44.170Z,18.70
2018-05-17T06:02:51.341Z,18.27
2018-05-17T06:07:58.411Z,19.43
2018-05-17T06:13:05.491Z,21.93
2018-05-17T06:18:12.598Z,17.97
2018-05-17T06:23:20.482Z,10.57
2018-05-17T06:28:27.574Z,16.03
2018-05-17T06:33:34.781Z,15.90
2018-05-17T06:38:41.870Z,18.67
2018-05-17T06:43:49.188Z,17.20
2018-05-17T06:48:56.190Z,15.13
2018-05-17T06:54:04.102Z,25.10
2018-05-17T06:59:11.217Z,14.97
2018-05-17T07:04:19.124Z,11.53
2018-05-17T07:09:26.321Z,17.27
2018-05-17T07:14:34.246Z,15.40
2018-05-17T07:19:41.462Z,12.97
2018-05-17T07:24:48.595Z,12.80
2018-05-17T07:29:55.910Z,10.73
2018-05-17T07:35:03.797Z,18.37
2018-05-17T07:40:11.686Z,17.67
2018-05-17T07:45:18.882Z,17.30
2018-05-17T07:50:25.909Z,13.03
2018-05-17T07:55:33.119Z,15.00
2018-05-17T08:00:41.016Z,18.67
2018-05-17T08:05:48.221Z,12.93
2018-05-17T08:10:55.370Z,12.27
2018-05-17T08:16:02.493Z,11.27
2018-05-17T08:21:10.350Z,14.13
2018-05-17T08:26:17.450Z,12.77
2018-05-17T08:31:25.362Z,9.93
2018-05-17T08:36:32.636Z,10.10
2018-05-17T08:41:39.721Z,16.53
2018-05-17T08:46:47.036Z,9.47
2018-05-17T08:51:54.070Z,7.20
2018-05-17T08:57:01.174Z,21.77
2018-05-17T09:02:08.989Z,14.50
2018-05-17T09:07:16.037Z,6.83
2018-05-17T09:12:23.202Z,14.07
2018-05-17T09:17:30.327Z,8.13
2018-05-17T09:22:37.442Z,9.87
2018-05-17T09:27:44.609Z,12.03
2018-05-17T09:32:52.537Z,13.10
2018-05-17T09:37:59.710Z,8.70
2018-05-17T09:43:06.925Z,14.27
2018-05-17T09:48:14.138Z,10.83
2018-05-17T09:53:21.365Z,10.40
2018-05-17T09:58:29.245Z,7.70
2018-05-17T10:03:36.447Z,9.60
2018-05-17T10:08:43.511Z,10.50
2018-05-17T10:13:50.606Z,10.90
2018-05-17T10:18:57.661Z,5.87
2018-05-17T10:24:05.580Z,8.37
2018-05-17T10:29:13.487Z,8.03
2018-05-17T10:34:21.418Z,9.40
2018-05-17T10:39:29.230Z,4.93
2018-05-17T10:44:36.422Z,5.57
2018-05-17T10:49:43.642Z,7.73
2018-05-17T10:54:50.793Z,10.90
2018-05-17T10:59:58.637Z,7.60
2018-05-17T11:05:05.852Z,10.50
2018-05-17T11:10:13.766Z,12.83
2018-05-17T11:15:20.978Z,6.80
2018-05-17T11:20:28.098Z,10.80
2018-05-17T11:25:35.223Z,10.10
2018-05-17T11:30:42.330Z,12.43
2018-05-17T11:35:50.206Z,14.73
2018-05-17T11:40:57.363Z,8.00
2018-05-17T11:46:04.505Z,10.37
2018-05-17T11:51:11.754Z,8.73
2018-05-17T11:56:19.734Z,7.23
2018-05-17T12:01:26.928Z,14.73
2018-05-17T12:06:33.992Z,9.43
2018-05-17T12:11:41.233Z,15.80
2018-05-17T12:16:48.333Z,9.30
2018-05-17T12:21:56.281Z,17.83
2018-05-17T12:27:03.474Z,10.27
2018-05-17T12:32:11.482Z,12.63
2018-05-17T12:37:19.293Z,9.50
2018-05-17T12:42:26.386Z,14.53
2018-05-17T12:47:33.635Z,15.47
2018-05-17T12:52:40.794Z,10.70
2018-05-17T12:57:47.957Z,17.23
2018-05-17T13:02:55.106Z,10.77
2018-05-17T13:08:02.254Z,19.03
2018-05-17T13:13:09.422Z,19.00
2018-05-17T13:18:16.539Z,11.80
2018-05-17T13:23:23.769Z,14.40
2018-05-17T13:28:34.942Z,15.67
2018-05-17T13:33:42.060Z,10.93
2018-05-17T13:38:49.330Z,10.53
2018-05-17T13:43:57.342Z,12.73
2018-05-17T13:49:04.492Z,9.63
2018-05-17T13:54:11.546Z,11.77
2018-05-17T13:59:19.589Z,15.50
2018-05-17T14:04:27.489Z,12.17
2018-05-17T14:09:34.645Z,7.43
2018-05-17T14:14:41.743Z,12.17
2018-05-17T14:19:48.850Z,9.40
2018-05-17T14:24:56.109Z,15.50
2018-05-17T14:30:04.027Z,10.27
2018-05-17T14:35:11.844Z,10.00
2018-05-17T14:40:19.042Z,14.83
2018-05-17T14:45:26.171Z,15.30
2018-05-17T14:50:33.430Z,16.20
2018-05-17T14:55:40.657Z,12.37
2018-05-17T15:00:47.800Z,10.33
2018-05-17T15:05:55.050Z,15.60
2018-05-17T15:11:02.981Z,19.60
2018-05-17T15:16:10.105Z,14.13
2018-05-17T15:21:17.226Z,15.03
2018-05-17T15:26:25.206Z,16.97
2018-05-17T15:31:32.370Z,19.77
2018-05-17T15:36:40.340Z,16.67
2018-05-17T15:41:47.564Z,18.87
2018-05-17T15:46:55.545Z,24.27
2018-05-17T15:52:02.666Z,27.37
2018-05-17T15:57:10.572Z,19.47
2018-05-17T16:02:17.733Z,19.70
2018-05-17T16:07:25.589Z,22.17
2018-05-17T16:12:32.755Z,25.30
2018-05-17T16:17:39.951Z,23.80
2018-05-17T16:22:47.054Z,33.93
2018-05-17T16:27:54.138Z,19.93
2018-05-17T16:33:01.344Z,15.27
2018-05-17T16:38:08.498Z,22.63
2018-05-17T16:43:16.441Z,20.97
2018-05-17T16:48:23.576Z,19.10
2018-05-17T16:53:30.845Z,18.40
2018-05-17T16:58:38.784Z,20.40
2018-05-17T17:03:45.745Z,18.27
2018-05-17T17:08:53.666Z,17.60
2018-05-17T17:14:01.573Z,21.10
2018-05-17T17:19:08.754Z,24.03
2018-05-17T17:24:16.033Z,23.70
2018-05-17T17:29:23.913Z,25.20
2018-05-17T17:34:31.081Z,19.87
2018-05-17T17:39:38.218Z,24.00
2018-05-17T17:44:45.330Z,20.87
2018-05-17T17:49:53.425Z,18.03
2018-05-17T17:55:00.467Z,21.43
2018-05-17T18:00:07.691Z,14.13
2018-05-17T18:05:14.906Z,12.30
2018-05-17T18:10:21.797Z,18.23
2018-05-17T18:15:29.687Z,18.70
2018-05-17T18:20:36.894Z,17.03
2018-05-17T18:25:44.092Z,16.13
2018-05-17T18:30:51.246Z,17.07
2018-05-17T18:35:59.073Z,14.30
2018-05-17T18:41:06.283Z,15.80
2018-05-17T18:46:13.382Z,17.60
2018-05-17T18:51:21.311Z,16.10
2018-05-17T18:56:28.409Z,16.77
2018-05-17T19:01:35.549Z,10.50
2018-05-17T19:06:42.729Z,15.77
2018-05-17T19:11:50.646Z,12.87
2018-05-17T19:16:58.552Z,8.90
2018-05-17T19:22:05.745Z,11.33
2018-05-17T19:27:12.997Z,12.33
2018-05-17T19:32:20.326Z,11.00
2018-05-17T19:37:28.258Z,11.87
2018-05-17T19:42:35.434Z,12.07
2018-05-17T19:47:42.637Z,14.43
2018-05-17T19:52:49.807Z,9.70
2018-05-17T19:57:56.877Z,14.33
2018-05-17T20:03:04.098Z,8.40
2018-05-17T20:08:11.341Z,12.10
2018-05-17T20:13:18.457Z,9.77
2018-05-17T20:18:25.493Z,11.57
2018-05-17T20:23:32.631Z,12.10
2018-05-17T20:28:40.526Z,10.93
2018-05-17T20:33:47.722Z,13.23
2018-05-17T20:38:54.833Z,16.77
2018-05-17T20:44:01.955Z,14.20
2018-05-17T20:49:09.065Z,15.90
2018-05-17T20:54:16.222Z,20.83
2018-05-17T20:59:24.071Z,23.60
2018-05-17T21:04:31.198Z,10.40
2018-05-17T21:09:39.082Z,19.83
2018-05-17T21:14:46.163Z,20.73
2018-05-17T21:19:53.360Z,13.80
2018-05-17T21:25:00.586Z,15.00
2018-05-17T21:30:08.495Z,17.40
2018-05-17T21:35:15.618Z,18.20
2018-05-17T21:40:22.810Z,10.67
2018-05-17T21:45:30.008Z,13.77
2018-05-17T21:50:37.826Z,13.10
2018-05-17T21:55:45.634Z,11.47
2018-05-17T22:00:52.765Z,12.80
2018-05-17T22:06:00.670Z,14.03
2018-05-17T22:11:07.881Z,17.90
2018-05-17T22:16:15.010Z,13.20
2018-05-17T22:21:22.183Z,11.23
2018-05-17T22:26:29.366Z,13.90
2018-05-17T22:31:36.554Z,15.77
2018-05-17T22:36:43.790Z,8.50
2018-05-17T22:41:51.634Z,12.37
2018-05-17T22:46:58.710Z,11.60
2018-05-17T22:52:06.634Z,9.50
2018-05-17T22:57:13.841Z,14.47
2018-05-17T23:02:20.975Z,14.17
2018-05-17T23:07:28.237Z,19.60
2018-05-17T23:12:35.390Z,12.60
2018-05-17T23:17:42.635Z,9.43
2018-05-17T23:22:49.762Z,9.00
2018-05-17T23:27:57.666Z,11.93
2018-05-17T23:33:04.775Z,16.57
2018-05-17T23:38:11.971Z,15.53
2018-05-17T23:43:19.887Z,13.60
2018-05-17T23:48:27.209Z,9.67
2018-05-17T23:53:34.377Z,8.03
2018-05-17T23:58:42.321Z,7.80
